Time;durP1;ratioP1;P1;durP2;ratioP2;P2;SDS_P1;SDS_P2;PMS_P1;PMS_P2;Temp;Humidity;BMP_temperature;BMP_pressure;BME280_temperature;BME280_humidity;BME280_pressure;Samples;Min_cycle;Max_cycle;Signal;HPM_P1;HPM_P2
2021/12/24 00:00:13;;;;;;;;;;;7.80;99.90;;;;;;5088248;28;19959;-74
2021/12/24 00:02:38;;;;;;;;;;;7.80;99.90;;;;;;5086689;28;20278;-74
2021/12/24 00:05:05;;;;;;;;;;;7.70;99.90;;;;;;5095642;28;20021;-73
2021/12/24 00:07:31;;;;;;;;;;;7.70;99.90;;;;;;5097389;28;20007;-74
2021/12/24 00:09:57;;;;;;;;;;;7.70;99.90;;;;;;5093017;28;20011;-74
2021/12/24 00:12:25;;;;;;;;;;;7.90;99.90;;;;;;5083349;28;19953;-74
2021/12/24 00:14:55;;;;;;;;;;;7.90;99.90;;;;;;5078032;28;20369;-74
2021/12/24 00:17:27;;;;;;;;;;;7.90;99.90;;;;;;5090841;28;19943;-74
2021/12/24 00:21:16;;;;;;;;;;;7.90;99.90;;;;;;5091340;28;19907;-74
2021/12/24 00:36:06;;;;;;;;;;;7.80;99.90;;;;;;5095363;28;20004;-74
2021/12/24 00:38:31;;;;;;;;;;;7.80;99.90;;;;;;5082916;28;19948;-73
2021/12/24 00:40:57;;;;;;;;;;;7.90;99.90;;;;;;5091804;28;20327;-74
2021/12/24 00:43:23;;;;;;;;;;;7.90;99.90;;;;;;5100473;28;19908;-74
2021/12/24 00:45:51;;;;;;;;;;;7.90;99.90;;;;;;5093049;28;19908;-74
2021/12/24 00:48:18;;;;;;;;;;;8.00;99.90;;;;;;5101562;28;20416;-73
2021/12/24 00:56:02;;;;;;;;;;;8.10;99.90;;;;;;5095067;28;20357;-73
2021/12/24 00:58:27;;;;;;;;;;;8.10;99.90;;;;;;5096067;28;19931;-73
2021/12/24 01:00:53;;;;;;;;;;;8.10;99.90;;;;;;5097444;28;19920;-73
2021/12/24 01:03:19;;;;;;;;;;;8.10;99.90;;;;;;5099223;28;19951;-73
2021/12/24 01:05:45;;;;;;;;;;;8.10;99.90;;;;;;5088548;28;20376;-73
2021/12/24 01:08:11;;;;;;;;;;;8.10;99.90;;;;;;5101162;28;20068;-73
2021/12/24 01:10:40;;;;;;;;;;;8.10;99.90;;;;;;5099556;28;19912;-74
2021/12/24 01:13:06;;;;;;;;;;;8.20;99.90;;;;;;5103437;28;19914;-74
2021/12/24 01:15:34;;;;;;;;;;;8.20;99.90;;;;;;5096321;28;19908;-74
2021/12/24 01:18:14;;;;;;;;;;;8.10;99.90;;;;;;5094755;28;19916;-74
2021/12/24 01:20:45;;;;;;;;;;;8.20;99.90;;;;;;5099161;28;19915;-74
2021/12/24 01:23:31;;;;;;;;;;;8.10;99.90;;;;;;5095054;28;19958;-74
2021/12/24 01:26:03;;;;;;;;;;;8.10;99.90;;;;;;5099805;28;20412;-74
2021/12/24 01:39:19;;;;;;;;;;;8.10;99.90;;;;;;5095395;28;19934;-74
2021/12/24 01:44:29;;;;;;;;;;;8.00;99.90;;;;;;5094473;28;19952;-74
2021/12/24 01:46:55;;;;;;;;;;;8.10;99.90;;;;;;5095992;28;19916;-73
2021/12/24 01:49:21;;;;;;;;;;;8.10;99.90;;;;;;5094289;28;19919;-73
2021/12/24 01:51:46;;;;;;;;;;;8.10;99.90;;;;;;5099107;28;19908;-74
2021/12/24 01:54:12;;;;;;;;;;;8.10;99.90;;;;;;5097025;28;19967;-75
2021/12/24 01:56:38;;;;;;;;;;;8.10;99.90;;;;;;5093673;28;20365;-75
2021/12/24 01:59:03;;;;;;;;;;;8.10;99.90;;;;;;5100542;28;19908;-74
2021/12/24 02:01:29;;;;;;;;;;;8.00;99.90;;;;;;5090407;28;20321;-74
2021/12/24 02:03:55;;;;;;;;;;;8.00;99.90;;;;;;5097441;28;19908;-74
2021/12/24 02:06:21;;;;;;;;;;;7.90;99.90;;;;;;5082253;28;19995;-74
2021/12/24 02:08:46;;;;;;;;;;;8.00;99.90;;;;;;5099496;28;19911;-73
2021/12/24 02:11:12;;;;;;;;;;;8.00;99.90;;;;;;5097130;28;19915;-74
2021/12/24 02:13:38;;;;;;;;;;;7.90;99.90;;;;;;5089985;28;19912;-74
2021/12/24 02:29:53;;;;;;;;;;;7.90;99.90;;;;;;5100141;28;19919;-74
2021/12/24 02:32:19;;;;;;;;;;;8.00;99.90;;;;;;5096900;28;20278;-74
2021/12/24 02:34:45;;;;;;;;;;;7.90;99.90;;;;;;5098219;28;20267;-74
2021/12/24 02:37:10;;;;;;;;;;;8.10;99.90;;;;;;5092818;28;19961;-74
2021/12/24 02:39:37;;;;;;;;;;;8.00;99.90;;;;;;5091644;28;19917;-74
2021/12/24 02:42:10;;;;;;;;;;;8.00;99.90;;;;;;5091478;28;19909;-73
2021/12/24 02:44:36;;;;;;;;;;;8.00;99.90;;;;;;5090719;28;20147;-74
2021/12/24 02:47:12;;;;;;;;;;;8.00;99.90;;;;;;5096233;28;20266;-73
2021/12/24 02:54:57;;;;;;;;;;;8.10;99.90;;;;;;5091720;28;19954;-72
2021/12/24 02:57:27;;;;;;;;;;;8.10;99.90;;;;;;5093720;28;20335;-73
2021/12/24 03:00:01;;;;;;;;;;;8.00;99.90;;;;;;5099641;28;19961;-73
2021/12/24 03:02:27;;;;;;;;;;;8.10;99.90;;;;;;5095476;28;19920;-73
2021/12/24 03:04:53;;;;;;;;;;;8.00;99.90;;;;;;5093824;28;19955;-74
2021/12/24 03:07:18;;;;;;;;;;;7.90;99.90;;;;;;5098529;28;20383;-74
2021/12/24 03:09:44;;;;;;;;;;;8.00;99.90;;;;;;5095009;28;20262;-73
2021/12/24 03:12:13;;;;;;;;;;;8.00;99.90;;;;;;5096902;28;19981;-75
2021/12/24 03:14:38;;;;;;;;;;;7.90;99.90;;;;;;5100194;28;19914;-74
2021/12/24 03:17:12;;;;;;;;;;;8.00;99.90;;;;;;5094415;28;19907;-74
2021/12/24 03:19:38;;;;;;;;;;;8.10;99.90;;;;;;5091847;28;19934;-72
2021/12/24 03:24:49;;;;;;;;;;;8.00;99.90;;;;;;5098954;28;19930;-73
2021/12/24 03:27:15;;;;;;;;;;;8.00;99.90;;;;;;5090414;28;19912;-73
2021/12/24 03:29:40;;;;;;;;;;;8.10;99.90;;;;;;5093055;28;19915;-74
2021/12/24 03:32:06;;;;;;;;;;;8.00;99.90;;;;;;5087615;28;19908;-73
2021/12/24 03:34:32;;;;;;;;;;;8.00;99.90;;;;;;5101806;28;19908;-73
2021/12/24 03:36:58;;;;;;;;;;;8.10;99.90;;;;;;5089050;28;20276;-74
2021/12/24 03:39:24;;;;;;;;;;;8.10;99.90;;;;;;5100121;28;19911;-72
2021/12/24 03:41:49;;;;;;;;;;;8.20;99.90;;;;;;5095512;28;19912;-72
2021/12/24 03:44:17;;;;;;;;;;;8.20;99.90;;;;;;5099226;28;19908;-73
2021/12/24 03:47:27;;;;;;;;;;;8.20;99.90;;;;;;5089736;28;19969;-73
2021/12/24 03:49:41;;;;;;;;;;;8.30;99.90;;;;;;5085280;28;19912;-73
2021/12/24 03:54:59;;;;;;;;;;;8.20;99.90;;;;;;5091556;28;19933;-72
2021/12/24 03:57:25;;;;;;;;;;;8.20;99.90;;;;;;5098071;28;19952;-74
2021/12/24 03:59:51;;;;;;;;;;;8.20;99.90;;;;;;5099769;28;19920;-74
2021/12/24 04:02:17;;;;;;;;;;;8.20;99.90;;;;;;5099989;28;19977;-74
2021/12/24 04:04:43;;;;;;;;;;;8.30;99.90;;;;;;5100070;28;20287;-73
2021/12/24 04:07:09;;;;;;;;;;;8.20;99.90;;;;;;5096296;28;19920;-73
2021/12/24 04:09:36;;;;;;;;;;;8.30;99.90;;;;;;5097027;28;19919;-73
2021/12/24 04:12:02;;;;;;;;;;;8.20;99.90;;;;;;5090215;28;19915;-74
2021/12/24 04:14:28;;;;;;;;;;;8.10;99.90;;;;;;5098511;28;19912;-74
2021/12/24 04:16:53;;;;;;;;;;;8.20;99.90;;;;;;5084484;28;19954;-74
2021/12/24 04:24:56;;;;;;;;;;;8.20;99.90;;;;;;5103261;28;19919;-73
2021/12/24 04:27:23;;;;;;;;;;;8.20;99.90;;;;;;5102258;28;20349;-73
2021/12/24 04:29:49;;;;;;;;;;;8.20;99.90;;;;;;5099973;28;20506;-73
2021/12/24 04:32:23;;;;;;;;;;;8.20;99.90;;;;;;5099701;28;19987;-73
2021/12/24 04:34:51;;;;;;;;;;;8.20;99.90;;;;;;5102829;28;19994;-73
2021/12/24 05:04:04;;;;;;;;;;;8.20;99.90;;;;;;5084435;28;19937;-73
2021/12/24 05:06:36;;;;;;;;;;;8.20;99.90;;;;;;5105197;28;19915;-74
2021/12/24 05:09:11;;;;;;;;;;;8.20;99.90;;;;;;5097936;28;19934;-73
2021/12/24 05:11:37;;;;;;;;;;;8.20;99.90;;;;;;5097535;28;20287;-73
2021/12/24 05:14:04;;;;;;;;;;;8.20;99.90;;;;;;5103402;28;19947;-73
2021/12/24 05:16:49;;;;;;;;;;;8.10;99.90;;;;;;5102134;28;20372;-74
2021/12/24 05:22:00;;;;;;;;;;;8.20;99.90;;;;;;5102845;28;19980;-73
2021/12/24 05:24:26;;;;;;;;;;;8.20;99.90;;;;;;5103889;28;19955;-72
2021/12/24 05:26:54;;;;;;;;;;;8.30;99.90;;;;;;5095013;28;20296;-73
2021/12/24 05:29:20;;;;;;;;;;;8.20;99.90;;;;;;5084115;28;20045;-74
2021/12/24 05:31:46;;;;;;;;;;;8.20;99.90;;;;;;5100115;28;19911;-73
2021/12/24 05:34:14;;;;;;;;;;;8.20;99.90;;;;;;5093504;28;19912;-73
2021/12/24 05:36:40;;;;;;;;;;;8.20;99.90;;;;;;5090533;28;19915;-73
2021/12/24 05:39:06;;;;;;;;;;;8.10;99.90;;;;;;5097317;28;19908;-73
2021/12/24 05:41:31;;;;;;;;;;;8.30;99.90;;;;;;5094562;28;19922;-73
2021/12/24 05:43:59;;;;;;;;;;;8.30;99.90;;;;;;5100965;28;20275;-73
2021/12/24 05:46:25;;;;;;;;;;;8.20;99.90;;;;;;5080687;28;19966;-73
2021/12/24 05:48:51;;;;;;;;;;;8.20;99.90;;;;;;5096379;28;19915;-73
2021/12/24 05:51:16;;;;;;;;;;;8.30;99.90;;;;;;5087427;28;19920;-73
2021/12/24 05:53:42;;;;;;;;;;;8.20;99.90;;;;;;5097992;28;19908;-73
2021/12/24 05:56:07;;;;;;;;;;;8.30;99.90;;;;;;5093596;28;19908;-74
2021/12/24 05:58:33;;;;;;;;;;;8.20;99.90;;;;;;5098246;28;19908;-73
2021/12/24 06:00:58;;;;;;;;;;;8.20;99.90;;;;;;5100510;28;20020;-72
2021/12/24 06:03:24;;;;;;;;;;;8.20;99.90;;;;;;5103883;28;20349;-72
2021/12/24 06:05:50;;;;;;;;;;;8.30;99.90;;;;;;5099398;28;19923;-72
2021/12/24 06:08:15;;;;;;;;;;;8.20;99.90;;;;;;5093776;28;19908;-74
2021/12/24 06:10:42;;;;;;;;;;;8.30;99.90;;;;;;5097911;28;19915;-75
2021/12/24 06:13:07;;;;;;;;;;;8.20;99.90;;;;;;5097135;28;20167;-74
2021/12/24 06:15:41;;;;;;;;;;;8.20;99.90;;;;;;5103712;28;19947;-72
2021/12/24 06:18:13;;;;;;;;;;;8.30;99.90;;;;;;5088043;28;19924;-74
2021/12/24 06:20:39;;;;;;;;;;;8.30;99.90;;;;;;5098180;28;19934;-73
2021/12/24 06:23:07;;;;;;;;;;;8.40;99.90;;;;;;5096772;28;20311;-73
2021/12/24 06:25:33;;;;;;;;;;;8.30;99.90;;;;;;5102084;28;19990;-73
2021/12/24 06:27:58;;;;;;;;;;;8.30;99.90;;;;;;5101707;28;19914;-73
2021/12/24 06:30:29;;;;;;;;;;;8.30;99.90;;;;;;5110684;28;20009;-74
2021/12/24 06:32:55;;;;;;;;;;;8.20;99.90;;;;;;5094869;28;19917;-72
2021/12/24 06:35:20;;;;;;;;;;;8.20;99.90;;;;;;5095780;28;19911;-73
2021/12/24 06:37:46;;;;;;;;;;;8.30;99.90;;;;;;5093496;28;19912;-73
2021/12/24 06:40:11;;;;;;;;;;;8.30;99.90;;;;;;5085121;28;19945;-74
2021/12/24 06:42:37;;;;;;;;;;;8.30;99.90;;;;;;5089920;28;19919;-74
2021/12/24 06:45:03;;;;;;;;;;;8.20;99.90;;;;;;5085513;28;20233;-73
2021/12/24 06:47:28;;;;;;;;;;;8.20;99.90;;;;;;5084411;28;19911;-73
2021/12/24 06:49:54;;;;;;;;;;;8.20;99.90;;;;;;5092120;28;19919;-73
2021/12/24 06:52:19;;;;;;;;;;;8.20;99.90;;;;;;5084828;28;19931;-73
2021/12/24 06:54:45;;;;;;;;;;;8.20;99.90;;;;;;5088513;28;19954;-72
2021/12/24 06:57:15;;;;;;;;;;;8.20;99.90;;;;;;5094136;28;19912;-69
2021/12/24 06:59:40;;;;;;;;;;;8.30;99.90;;;;;;5097177;28;19957;-70
2021/12/24 07:02:08;;;;;;;;;;;8.30;99.90;;;;;;5093413;28;19907;-71
2021/12/24 07:04:33;;;;;;;;;;;8.10;99.90;;;;;;5090777;28;19908;-70
2021/12/24 07:06:59;;;;;;;;;;;8.20;99.90;;;;;;5094570;28;19952;-72
2021/12/24 07:09:25;;;;;;;;;;;8.10;99.90;;;;;;5098603;28;19911;-72
2021/12/24 07:11:50;;;;;;;;;;;8.10;99.90;;;;;;5103391;28;20499;-70
2021/12/24 07:14:16;;;;;;;;;;;8.20;99.90;;;;;;5099307;28;19907;-71
2021/12/24 07:16:41;;;;;;;;;;;8.20;99.90;;;;;;5089856;28;19915;-71
2021/12/24 07:19:07;;;;;;;;;;;8.30;99.90;;;;;;5102233;28;19908;-70
2021/12/24 07:21:35;;;;;;;;;;;8.30;99.90;;;;;;5099438;28;19914;-69
2021/12/24 07:24:02;;;;;;;;;;;8.20;99.90;;;;;;5084921;28;19973;-72
2021/12/24 07:26:27;;;;;;;;;;;8.30;99.90;;;;;;5094271;28;19908;-71
2021/12/24 07:28:53;;;;;;;;;;;8.30;99.90;;;;;;5096329;28;20423;-71
2021/12/24 07:31:18;;;;;;;;;;;8.10;99.90;;;;;;5088793;28;20273;-69
2021/12/24 07:33:44;;;;;;;;;;;8.10;99.90;;;;;;5090074;28;20264;-70
2021/12/24 07:36:10;;;;;;;;;;;8.10;99.90;;;;;;5096080;28;19922;-68
2021/12/24 07:38:35;;;;;;;;;;;8.20;99.90;;;;;;5094423;28;19921;-73
2021/12/24 07:41:01;;;;;;;;;;;8.10;99.90;;;;;;5097797;28;19920;-69
2021/12/24 07:43:27;;;;;;;;;;;8.10;99.90;;;;;;5091551;28;19936;-69
2021/12/24 07:45:54;;;;;;;;;;;8.10;99.90;;;;;;5096991;28;19908;-70
2021/12/24 07:48:27;;;;;;;;;;;8.10;99.90;;;;;;5092278;28;19952;-69
2021/12/24 07:53:19;;;;;;;;;;;8.00;99.90;;;;;;5100037;28;20386;-71
2021/12/24 07:55:45;;;;;;;;;;;8.10;99.90;;;;;;5102911;28;19916;-69
2021/12/24 07:58:13;;;;;;;;;;;8.10;99.90;;;;;;5109540;28;19915;-72
2021/12/24 08:00:39;;;;;;;;;;;8.20;99.90;;;;;;5100587;28;19912;-72
2021/12/24 08:03:05;;;;;;;;;;;8.40;99.90;;;;;;5098368;28;19908;-69
2021/12/24 08:05:31;;;;;;;;;;;8.70;99.90;;;;;;5093696;28;20377;-71
2021/12/24 08:07:57;;;;;;;;;;;8.80;99.90;;;;;;5099099;28;20003;-71
2021/12/24 08:10:24;;;;;;;;;;;8.80;99.90;;;;;;5100297;28;20011;-71
2021/12/24 08:12:50;;;;;;;;;;;8.90;99.90;;;;;;5091546;28;19915;-72
2021/12/24 08:15:17;;;;;;;;;;;8.90;99.90;;;;;;5099073;28;20310;-72
2021/12/24 08:17:43;;;;;;;;;;;9.00;99.90;;;;;;5102389;28;19923;-72
2021/12/24 08:20:08;;;;;;;;;;;9.00;99.90;;;;;;5096533;28;19912;-72
2021/12/24 08:22:34;;;;;;;;;;;9.00;99.90;;;;;;5101163;28;19908;-71
2021/12/24 08:25:00;;;;;;;;;;;9.00;99.90;;;;;;5098046;28;19918;-71
2021/12/24 08:27:26;;;;;;;;;;;9.00;99.90;;;;;;5098066;28;19961;-70
2021/12/24 08:29:52;;;;;;;;;;;9.00;99.90;;;;;;5100203;28;19919;-71
2021/12/24 08:32:18;;;;;;;;;;;8.90;99.90;;;;;;5088799;28;20257;-70
2021/12/24 08:34:44;;;;;;;;;;;8.90;99.90;;;;;;5097334;28;19916;-70
2021/12/24 08:37:10;;;;;;;;;;;8.90;99.90;;;;;;5095217;28;20002;-70
2021/12/24 08:39:36;;;;;;;;;;;8.90;99.90;;;;;;5098435;28;20038;-70
2021/12/24 08:42:01;;;;;;;;;;;8.80;99.90;;;;;;5104097;28;19931;-70
2021/12/24 08:44:28;;;;;;;;;;;8.80;99.90;;;;;;5096985;28;19912;-69
2021/12/24 08:46:54;;;;;;;;;;;8.70;99.90;;;;;;5100501;28;20318;-69
2021/12/24 08:49:20;;;;;;;;;;;8.70;99.90;;;;;;5092050;28;19918;-69
2021/12/24 08:51:49;;;;;;;;;;;8.70;99.90;;;;;;5088440;28;19911;-71
2021/12/24 08:54:15;;;;;;;;;;;8.80;99.90;;;;;;5097890;28;20382;-70
2021/12/24 08:56:40;;;;;;;;;;;8.60;99.90;;;;;;5095526;28;19954;-71
2021/12/24 08:59:06;;;;;;;;;;;8.60;99.90;;;;;;5098202;28;19908;-70
2021/12/24 09:01:32;;;;;;;;;;;8.70;99.90;;;;;;5099789;28;19918;-71
2021/12/24 09:03:57;;;;;;;;;;;8.70;99.90;;;;;;5097805;28;19970;-70
2021/12/24 09:06:24;;;;;;;;;;;8.70;99.90;;;;;;5100267;28;19908;-70
2021/12/24 09:08:49;;;;;;;;;;;8.80;99.90;;;;;;5104149;28;19911;-71
2021/12/24 09:11:15;;;;;;;;;;;8.70;99.90;;;;;;5088270;28;19912;-69
2021/12/24 09:13:40;;;;;;;;;;;8.70;99.90;;;;;;5087352;28;19911;-72
2021/12/24 09:16:06;;;;;;;;;;;8.70;99.90;;;;;;5094252;28;19908;-70
2021/12/24 09:18:32;;;;;;;;;;;8.60;99.90;;;;;;5094030;28;19911;-71
2021/12/24 09:21:01;;;;;;;;;;;8.60;99.90;;;;;;5094243;28;19910;-70
2021/12/24 09:23:27;;;;;;;;;;;8.60;99.90;;;;;;5114260;28;20377;-71
2021/12/24 09:25:52;;;;;;;;;;;8.60;99.90;;;;;;5098089;28;19911;-71
2021/12/24 09:28:18;;;;;;;;;;;8.70;99.90;;;;;;5091167;28;19908;-72
2021/12/24 09:30:44;;;;;;;;;;;8.60;99.90;;;;;;5103412;28;19907;-70
2021/12/24 09:33:09;;;;;;;;;;;8.70;99.90;;;;;;5092970;28;19915;-70
2021/12/24 09:35:35;;;;;;;;;;;8.70;99.90;;;;;;5102954;28;19908;-69
2021/12/24 09:38:02;;;;;;;;;;;8.70;99.90;;;;;;5084536;28;19915;-70
2021/12/24 09:40:28;;;;;;;;;;;8.90;99.90;;;;;;5098793;28;20330;-68
2021/12/24 09:42:54;;;;;;;;;;;8.90;99.90;;;;;;5094995;28;19915;-71
2021/12/24 09:45:20;;;;;;;;;;;8.80;99.90;;;;;;5094783;28;19923;-69
2021/12/24 09:47:46;;;;;;;;;;;8.80;99.90;;;;;;5096832;28;19904;-71
2021/12/24 09:50:13;;;;;;;;;;;8.80;99.90;;;;;;5085235;28;19912;-70
2021/12/24 09:52:40;;;;;;;;;;;8.80;99.90;;;;;;5090639;28;19918;-70
2021/12/24 09:55:07;;;;;;;;;;;8.80;99.90;;;;;;5101967;28;19907;-71
2021/12/24 09:57:33;;;;;;;;;;;8.80;99.90;;;;;;5094089;28;20452;-70
2021/12/24 09:59:58;;;;;;;;;;;8.60;99.90;;;;;;5089395;28;19998;-70
2021/12/24 10:02:28;;;;;;;;;;;8.70;99.90;;;;;;5089257;28;19911;-70
2021/12/24 10:04:54;;;;;;;;;;;8.70;99.90;;;;;;5097247;28;19916;-70
2021/12/24 10:07:24;;;;;;;;;;;8.80;99.90;;;;;;5089788;28;20037;-70
2021/12/24 10:09:50;;;;;;;;;;;8.90;99.90;;;;;;5094437;28;20384;-68
2021/12/24 10:12:22;;;;;;;;;;;8.90;99.90;;;;;;5077194;28;20053;-67
2021/12/24 10:14:47;;;;;;;;;;;8.80;99.90;;;;;;5094202;28;19959;-67
2021/12/24 10:17:15;;;;;;;;;;;8.70;99.90;;;;;;5101665;28;20012;-68
2021/12/24 10:19:44;;;;;;;;;;;8.60;99.90;;;;;;5094533;28;19918;-66
2021/12/24 10:22:11;;;;;;;;;;;8.70;99.90;;;;;;5102354;28;20262;-69
2021/12/24 10:24:37;;;;;;;;;;;8.70;99.90;;;;;;5099662;28;19915;-68
2021/12/24 10:27:03;;;;;;;;;;;8.70;99.90;;;;;;5095809;28;20235;-69
2021/12/24 10:29:28;;;;;;;;;;;8.90;99.90;;;;;;5094761;28;19955;-70
2021/12/24 10:31:55;;;;;;;;;;;8.90;99.90;;;;;;5101996;28;19915;-70
2021/12/24 10:34:21;;;;;;;;;;;8.80;99.90;;;;;;5094062;28;19932;-70
2021/12/24 10:36:49;;;;;;;;;;;8.90;99.90;;;;;;5099407;28;20274;-71
2021/12/24 10:39:19;;;;;;;;;;;9.00;99.90;;;;;;5094875;28;19908;-71
2021/12/24 10:41:46;;;;;;;;;;;8.90;99.90;;;;;;5098871;28;19924;-72
2021/12/24 10:44:15;;;;;;;;;;;8.80;99.90;;;;;;5100719;28;19959;-71
2021/12/24 10:46:55;;;;;;;;;;;8.90;99.90;;;;;;5095285;28;19912;-73
2021/12/24 10:49:35;;;;;;;;;;;8.80;99.90;;;;;;5101581;28;19919;-69
2021/12/24 10:52:12;;;;;;;;;;;8.80;99.90;;;;;;5093500;28;19959;-71
2021/12/24 10:54:50;;;;;;;;;;;8.80;99.90;;;;;;5097271;28;19908;-72
2021/12/24 10:57:16;;;;;;;;;;;8.70;99.90;;;;;;5095427;28;19933;-71
2021/12/24 10:59:44;;;;;;;;;;;8.60;99.90;;;;;;5097529;28;19908;-70
2021/12/24 11:02:10;;;;;;;;;;;8.60;99.90;;;;;;5103893;28;19908;-70
2021/12/24 11:04:36;;;;;;;;;;;8.60;99.90;;;;;;5095805;28;20220;-70
2021/12/24 11:07:02;;;;;;;;;;;8.60;99.90;;;;;;5102883;28;19908;-70
2021/12/24 11:09:28;;;;;;;;;;;8.60;99.90;;;;;;5095925;28;19976;-72
2021/12/24 11:11:56;;;;;;;;;;;8.70;99.90;;;;;;5102903;28;19965;-71
2021/12/24 11:14:21;;;;;;;;;;;8.60;99.90;;;;;;5084085;28;19915;-71
2021/12/24 11:16:47;;;;;;;;;;;8.50;99.90;;;;;;5105990;28;20418;-71
2021/12/24 11:19:13;;;;;;;;;;;8.60;99.90;;;;;;5090437;28;19926;-71
2021/12/24 11:21:38;;;;;;;;;;;8.60;99.90;;;;;;5099713;28;19911;-70
2021/12/24 11:24:04;;;;;;;;;;;8.50;99.90;;;;;;5097443;28;19969;-72
2021/12/24 11:26:32;;;;;;;;;;;8.60;99.90;;;;;;5101740;28;19907;-71
2021/12/24 11:28:58;;;;;;;;;;;8.60;99.90;;;;;;5096429;28;20080;-71
2021/12/24 11:31:25;;;;;;;;;;;8.50;99.90;;;;;;5100221;28;19998;-70
2021/12/24 11:33:54;;;;;;;;;;;8.50;99.90;;;;;;5103219;28;19908;-71
2021/12/24 11:36:21;;;;;;;;;;;8.50;99.90;;;;;;5098462;28;19985;-70
2021/12/24 11:38:51;;;;;;;;;;;8.50;99.90;;;;;;5098691;28;20380;-70
2021/12/24 11:41:18;;;;;;;;;;;8.60;99.90;;;;;;5086027;28;19908;-69
2021/12/24 11:43:45;;;;;;;;;;;8.60;99.90;;;;;;5099899;28;19904;-68
2021/12/24 11:46:12;;;;;;;;;;;8.70;99.90;;;;;;5089586;28;19915;-70
2021/12/24 11:48:38;;;;;;;;;;;8.70;99.90;;;;;;5092222;28;19908;-70
2021/12/24 11:51:06;;;;;;;;;;;8.70;99.90;;;;;;5097892;28;19971;-70
2021/12/24 11:53:33;;;;;;;;;;;8.70;99.90;;;;;;5096698;28;19908;-71
2021/12/24 11:56:03;;;;;;;;;;;8.70;99.90;;;;;;5094606;28;19904;-70
2021/12/24 11:58:32;;;;;;;;;;;8.70;99.90;;;;;;5094883;28;19961;-72
2021/12/24 12:01:02;;;;;;;;;;;8.70;99.90;;;;;;5093281;28;20369;-71
2021/12/24 12:03:34;;;;;;;;;;;8.70;99.90;;;;;;5092103;28;20416;-69
2021/12/24 12:06:00;;;;;;;;;;;8.80;99.90;;;;;;5093920;28;20287;-70
2021/12/24 12:08:25;;;;;;;;;;;8.90;99.90;;;;;;5093353;28;19915;-71
2021/12/24 12:10:53;;;;;;;;;;;8.70;99.90;;;;;;5098610;28;19919;-71
2021/12/24 12:13:37;;;;;;;;;;;8.60;99.90;;;;;;5091257;28;20407;-70
2021/12/24 12:16:03;;;;;;;;;;;8.50;99.90;;;;;;5096103;28;20006;-72
2021/12/24 12:18:29;;;;;;;;;;;8.40;99.90;;;;;;5102527;28;19930;-73
2021/12/24 12:21:08;;;;;;;;;;;8.40;99.90;;;;;;5103475;28;19907;-71
2021/12/24 12:24:57;;;;;;;;;;;8.40;99.90;;;;;;5094582;28;19969;-70
2021/12/24 12:26:37;;;;;;;;;;;8.20;99.90;;;;;;5094063;28;19930;-70
2021/12/24 12:29:21;;;;;;;;;;;8.30;99.90;;;;;;5104114;28;20374;-72
2021/12/24 12:31:47;;;;;;;;;;;8.40;99.90;;;;;;5092847;28;19912;-70
2021/12/24 12:34:32;;;;;;;;;;;8.50;99.90;;;;;;5093305;28;20354;-71
2021/12/24 12:37:16;;;;;;;;;;;8.60;99.90;;;;;;5096641;28;19908;-71
2021/12/24 12:39:42;;;;;;;;;;;8.60;99.90;;;;;;5100927;28;19915;-71
2021/12/24 12:42:08;;;;;;;;;;;8.70;99.90;;;;;;5098446;28;20142;-70
2021/12/24 12:44:34;;;;;;;;;;;8.60;99.90;;;;;;5096909;28;19954;-71
2021/12/24 12:47:21;;;;;;;;;;;8.70;99.90;;;;;;5103122;28;19912;-71
2021/12/24 12:49:47;;;;;;;;;;;8.80;99.90;;;;;;5110017;28;19907;-71
2021/12/24 12:52:21;;;;;;;;;;;8.90;99.90;;;;;;5096572;28;20280;-69
2021/12/24 12:54:48;;;;;;;;;;;8.80;99.90;;;;;;5107178;28;19908;-71
2021/12/24 12:57:16;;;;;;;;;;;8.80;99.90;;;;;;5104102;28;20395;-70
2021/12/24 13:00:00;;;;;;;;;;;8.80;99.90;;;;;;5094881;28;19947;-71
2021/12/24 13:02:44;;;;;;;;;;;8.80;99.90;;;;;;5095704;28;19915;-71
2021/12/24 13:05:10;;;;;;;;;;;8.80;99.90;;;;;;5097822;28;19931;-71
2021/12/24 13:07:35;;;;;;;;;;;8.80;99.90;;;;;;5100577;28;19923;-70
2021/12/24 13:10:04;;;;;;;;;;;8.80;99.90;;;;;;5098922;28;20265;-69
2021/12/24 13:12:30;;;;;;;;;;;8.90;99.90;;;;;;5097324;28;19908;-69
2021/12/24 13:14:58;;;;;;;;;;;8.80;99.90;;;;;;5103402;28;19912;-70
2021/12/24 13:17:30;;;;;;;;;;;8.90;99.90;;;;;;5104840;28;20321;-72
2021/12/24 13:20:09;;;;;;;;;;;8.80;99.90;;;;;;5095721;28;19907;-70
2021/12/24 13:22:37;;;;;;;;;;;8.80;99.90;;;;;;5095903;28;19908;-70
2021/12/24 13:25:11;;;;;;;;;;;8.80;99.90;;;;;;5101014;28;19948;-70
2021/12/24 13:27:40;;;;;;;;;;;8.90;99.90;;;;;;5098398;28;19914;-70
2021/12/24 13:30:10;;;;;;;;;;;9.00;99.90;;;;;;5098776;28;20353;-70
2021/12/24 13:32:46;;;;;;;;;;;8.90;99.90;;;;;;5128610;27;19908;-69
2021/12/24 13:35:12;;;;;;;;;;;8.90;99.90;;;;;;5099139;28;19969;-69
2021/12/24 13:37:39;;;;;;;;;;;8.90;99.90;;;;;;5094304;28;19908;-70
2021/12/24 13:40:08;;;;;;;;;;;8.80;99.90;;;;;;5095975;28;19991;-69
2021/12/24 13:42:41;;;;;;;;;;;8.80;99.90;;;;;;5090707;28;19914;-70
2021/12/24 13:45:07;;;;;;;;;;;8.80;99.90;;;;;;5097892;28;19914;-68
2021/12/24 13:47:55;;;;;;;;;;;8.80;99.90;;;;;;5095034;28;19998;-70
2021/12/24 13:55:48;;;;;;;;;;;8.80;99.90;;;;;;5067280;28;19955;-70
2021/12/24 13:58:15;;;;;;;;;;;8.90;99.90;;;;;;5092375;28;19943;-70
2021/12/24 14:00:51;;;;;;;;;;;8.90;99.90;;;;;;5095240;28;19922;-69
2021/12/24 14:03:21;;;;;;;;;;;8.90;99.90;;;;;;5101953;28;19908;-68
2021/12/24 14:05:51;;;;;;;;;;;8.80;99.90;;;;;;5101472;28;20356;-69
2021/12/24 14:08:21;;;;;;;;;;;8.80;99.90;;;;;;5092084;28;19939;-69
2021/12/24 14:10:48;;;;;;;;;;;8.90;99.90;;;;;;5098624;28;19912;-67
2021/12/24 14:13:26;;;;;;;;;;;8.90;99.90;;;;;;5095938;28;19927;-68
2021/12/24 14:18:56;;;;;;;;;;;8.90;99.90;;;;;;5095678;28;19912;-70
2021/12/24 14:24:11;;;;;;;;;;;8.80;99.90;;;;;;5103223;28;19911;-69
2021/12/24 14:26:41;;;;;;;;;;;8.70;99.90;;;;;;5095059;28;20009;-70
2021/12/24 14:29:07;;;;;;;;;;;8.70;99.90;;;;;;5103508;28;19918;-69
2021/12/24 14:31:51;;;;;;;;;;;8.80;99.90;;;;;;5091748;28;20002;-70
2021/12/24 14:34:36;;;;;;;;;;;8.70;99.90;;;;;;5097629;28;19930;-70
2021/12/24 14:37:03;;;;;;;;;;;8.60;99.90;;;;;;5092235;28;19912;-70
2021/12/24 14:39:40;;;;;;;;;;;8.60;99.90;;;;;;5086512;28;19908;-71
2021/12/24 14:42:09;;;;;;;;;;;8.60;99.90;;;;;;5080658;28;20046;-70
2021/12/24 14:44:35;;;;;;;;;;;8.60;99.90;;;;;;5076592;28;19908;-70
2021/12/24 14:47:00;;;;;;;;;;;8.70;99.90;;;;;;5089962;28;19982;-69
2021/12/24 14:49:32;;;;;;;;;;;8.70;99.90;;;;;;5078345;28;19923;-69
2021/12/24 14:52:27;;;;;;;;;;;8.70;99.90;;;;;;5086773;28;20006;-68
2021/12/24 14:55:05;;;;;;;;;;;8.70;99.90;;;;;;5086353;28;20131;-69
2021/12/24 14:57:32;;;;;;;;;;;8.70;99.90;;;;;;5096549;28;19911;-70
2021/12/24 15:00:07;;;;;;;;;;;8.70;99.90;;;;;;5102091;28;20415;-70
2021/12/24 15:02:38;;;;;;;;;;;8.70;99.90;;;;;;5082118;28;19912;-70
2021/12/24 15:05:03;;;;;;;;;;;8.70;99.90;;;;;;5080808;28;20272;-70
2021/12/24 15:07:30;;;;;;;;;;;8.80;99.90;;;;;;5081986;28;19912;-70
2021/12/24 15:10:09;;;;;;;;;;;8.70;99.90;;;;;;5083340;28;19912;-70
2021/12/24 15:12:50;;;;;;;;;;;8.70;99.90;;;;;;5081763;28;20253;-70
2021/12/24 15:15:17;;;;;;;;;;;8.60;99.90;;;;;;5094035;28;19907;-70
2021/12/24 15:17:43;;;;;;;;;;;8.60;99.90;;;;;;5097635;28;19911;-69
2021/12/24 15:20:09;;;;;;;;;;;8.60;99.90;;;;;;5100410;28;20071;-70
2021/12/24 15:22:35;;;;;;;;;;;8.70;99.90;;;;;;5101401;28;20299;-69
2021/12/24 15:25:01;;;;;;;;;;;8.70;99.90;;;;;;5095622;28;19965;-70
2021/12/24 15:27:32;;;;;;;;;;;8.60;99.90;;;;;;5095075;28;19931;-70
2021/12/24 15:30:00;;;;;;;;;;;8.60;99.90;;;;;;5095715;28;19951;-70
2021/12/24 15:32:26;;;;;;;;;;;8.70;99.90;;;;;;5099339;28;20350;-70
2021/12/24 15:34:52;;;;;;;;;;;8.70;99.90;;;;;;5096921;28;19904;-71
2021/12/24 15:37:17;;;;;;;;;;;8.70;99.90;;;;;;5097174;28;19908;-71
2021/12/24 15:39:43;;;;;;;;;;;8.80;99.90;;;;;;5103541;28;20273;-72
2021/12/24 15:42:09;;;;;;;;;;;8.80;99.90;;;;;;5100484;28;20325;-72
2021/12/24 15:44:35;;;;;;;;;;;8.90;99.90;;;;;;5102041;28;20376;-73
2021/12/24 15:47:00;;;;;;;;;;;9.00;99.90;;;;;;5090049;28;19912;-73
2021/12/24 15:49:26;;;;;;;;;;;9.10;99.90;;;;;;5094213;28;19912;-72
2021/12/24 15:51:52;;;;;;;;;;;9.20;99.90;;;;;;5097210;28;19960;-73
2021/12/24 15:54:17;;;;;;;;;;;9.20;99.90;;;;;;5091093;28;20378;-74
2021/12/24 15:56:46;;;;;;;;;;;9.20;99.90;;;;;;5097354;28;19908;-73
2021/12/24 15:59:12;;;;;;;;;;;9.30;99.90;;;;;;5102103;28;19956;-74
2021/12/24 16:01:37;;;;;;;;;;;9.30;99.90;;;;;;5101142;28;19915;-73
2021/12/24 16:04:03;;;;;;;;;;;9.20;99.90;;;;;;5098286;28;19908;-72
2021/12/24 16:06:28;;;;;;;;;;;9.20;99.90;;;;;;5100925;28;19943;-73
2021/12/24 16:08:54;;;;;;;;;;;9.20;99.90;;;;;;5093268;28;19926;-72
2021/12/24 16:11:19;;;;;;;;;;;9.20;99.90;;;;;;5099295;28;20339;-73
2021/12/24 16:13:45;;;;;;;;;;;9.20;99.90;;;;;;5099368;28;19908;-72
2021/12/24 16:16:10;;;;;;;;;;;9.10;99.90;;;;;;5100650;28;20337;-72
2021/12/24 16:18:36;;;;;;;;;;;9.10;99.90;;;;;;5103899;28;19915;-72
2021/12/24 16:21:02;;;;;;;;;;;9.10;99.90;;;;;;5093703;28;19923;-72